sensor_id;sensor_type;location;lat;lon;timestamp;pressure;altitude;pressure_sealevel;temperature;humidity
9538;BME280;4807;48.024;11.726;2023-06-24T00:02:54;95865.25;;;15.72;72.82
9538;BME280;4807;48.024;11.726;2023-06-24T00:06:05;95866.03;;;15.85;73.21
9538;BME280;4807;48.024;11.726;2023-06-24T00:09:13;95857.53;;;15.82;72.99
9538;BME280;4807;48.024;11.726;2023-06-24T00:12:21;95860.66;;;15.85;72.59
9538;BME280;4807;48.024;11.726;2023-06-24T00:15:29;95851.97;;;15.83;73.31
9538;BME280;4807;48.024;11.726;2023-06-24T00:18:38;95849.53;;;15.75;72.76
9538;BME280;4807;48.024;11.726;2023-06-24T00:21:51;95854.69;;;15.77;72.25
9538;BME280;4807;48.024;11.726;2023-06-24T00:25:00;95865.59;;;15.82;72.23
9538;BME280;4807;48.024;11.726;2023-06-24T00:28:08;95866.44;;;15.82;72.45
9538;BME280;4807;48.024;11.726;2023-06-24T00:31:16;95861.50;;;15.79;73.25
9538;BME280;4807;48.024;11.726;2023-06-24T00:34:25;95858.84;;;15.73;73.22
9538;BME280;4807;48.024;11.726;2023-06-24T00:37:34;95853.59;;;15.91;71.43
9538;BME280;4807;48.024;11.726;2023-06-24T00:40:43;95855.28;;;15.85;71.61
9538;BME280;4807;48.024;11.726;2023-06-24T00:43:54;95847.47;;;15.71;72.72
9538;BME280;4807;48.024;11.726;2023-06-24T00:47:06;95845.66;;;15.64;72.88
9538;BME280;4807;48.024;11.726;2023-06-24T00:50:15;95839.59;;;15.76;72.76
9538;BME280;4807;48.024;11.726;2023-06-24T00:53:25;95841.25;;;15.77;72.12
9538;BME280;4807;48.024;11.726;2023-06-24T00:56:34;95832.22;;;15.64;72.48
9538;BME280;4807;48.024;11.726;2023-06-24T00:59:47;95831.59;;;15.62;73.35
9538;BME280;4807;48.024;11.726;2023-06-24T01:02:57;95829.31;;;15.66;72.75
9538;BME280;4807;48.024;11.726;2023-06-24T01:06:08;95831.19;;;15.59;72.26
9538;BME280;4807;48.024;11.726;2023-06-24T01:09:17;95811.16;;;15.61;72.57
9538;BME280;4807;48.024;11.726;2023-06-24T01:12:26;95819.03;;;15.56;72.34
9538;BME280;4807;48.024;11.726;2023-06-24T01:15:35;95813.22;;;15.53;73.13
9538;BME280;4807;48.024;11.726;2023-06-24T01:18:49;95820.66;;;15.44;73.26
9538;BME280;4807;48.024;11.726;2023-06-24T01:22:23;95819.44;;;15.40;73.28
9538;BME280;4807;48.024;11.726;2023-06-24T01:26:03;95818.81;;;15.25;74.29
9538;BME280;4807;48.024;11.726;2023-06-24T01:29:42;95808.72;;;15.40;73.93
9538;BME280;4807;48.024;11.726;2023-06-24T01:33:03;95811.78;;;15.37;73.87
9538;BME280;4807;48.024;11.726;2023-06-24T01:36:14;95809.97;;;15.31;74.04
9538;BME280;4807;48.024;11.726;2023-06-24T01:39:25;95809.94;;;15.38;74.82
9538;BME280;4807;48.024;11.726;2023-06-24T01:42:38;95809.13;;;15.31;74.99
9538;BME280;4807;48.024;11.726;2023-06-24T01:45:50;95810.38;;;15.21;75.21
9538;BME280;4807;48.024;11.726;2023-06-24T01:49:04;95798.19;;;15.19;75.21
9538;BME280;4807;48.024;11.726;2023-06-24T01:52:17;95795.94;;;15.09;75.30
9538;BME280;4807;48.024;11.726;2023-06-24T01:55:29;95801.91;;;15.18;75.92
9538;BME280;4807;48.024;11.726;2023-06-24T01:58:41;95801.72;;;15.06;75.85
9538;BME280;4807;48.024;11.726;2023-06-24T02:01:52;95804.81;;;15.03;75.88
9538;BME280;4807;48.024;11.726;2023-06-24T02:05:05;95793.91;;;14.92;75.72
9538;BME280;4807;48.024;11.726;2023-06-24T02:08:18;95805.03;;;14.88;75.55
9538;BME280;4807;48.024;11.726;2023-06-24T02:11:30;95802.16;;;14.97;75.13
9538;BME280;4807;48.024;11.726;2023-06-24T02:14:40;95811.84;;;15.04;75.42
9538;BME280;4807;48.024;11.726;2023-06-24T02:17:52;95815.38;;;14.92;76.02
9538;BME280;4807;48.024;11.726;2023-06-24T02:21:05;95817.19;;;14.84;76.09
9538;BME280;4807;48.024;11.726;2023-06-24T02:24:14;95817.00;;;14.93;75.54
9538;BME280;4807;48.024;11.726;2023-06-24T02:27:24;95806.47;;;14.98;75.24
9538;BME280;4807;48.024;11.726;2023-06-24T02:30:34;95806.25;;;14.93;75.64
9538;BME280;4807;48.024;11.726;2023-06-24T02:33:43;95807.50;;;14.97;74.96
9538;BME280;4807;48.024;11.726;2023-06-24T02:36:53;95810.19;;;14.97;75.40
9538;BME280;4807;48.024;11.726;2023-06-24T02:40:03;95813.28;;;15.00;75.75
9538;BME280;4807;48.024;11.726;2023-06-24T02:43:13;95821.13;;;15.02;75.38
9538;BME280;4807;48.024;11.726;2023-06-24T02:46:24;95826.88;;;14.92;75.72
9538;BME280;4807;48.024;11.726;2023-06-24T02:49:38;95818.66;;;14.87;75.47
9538;BME280;4807;48.024;11.726;2023-06-24T02:52:48;95831.63;;;14.70;75.93
9538;BME280;4807;48.024;11.726;2023-06-24T02:55:59;95832.06;;;14.80;75.91
9538;BME280;4807;48.024;11.726;2023-06-24T02:59:11;95835.97;;;14.78;75.92
9538;BME280;4807;48.024;11.726;2023-06-24T03:02:20;95838.25;;;14.74;75.99
9538;BME280;4807;48.024;11.726;2023-06-24T03:05:31;95840.50;;;14.84;75.99
9538;BME280;4807;48.024;11.726;2023-06-24T03:08:42;95846.69;;;14.84;75.54
9538;BME280;4807;48.024;11.726;2023-06-24T03:11:51;95844.63;;;14.80;75.75
9538;BME280;4807;48.024;11.726;2023-06-24T03:15:10;95833.91;;;14.93;75.41
9538;BME280;4807;48.024;11.726;2023-06-24T03:18:20;95840.09;;;14.94;75.69
9538;BME280;4807;48.024;11.726;2023-06-24T03:21:29;95844.22;;;15.03;75.28
9538;BME280;4807;48.024;11.726;2023-06-24T03:24:47;95847.72;;;15.10;75.15
9538;BME280;4807;48.024;11.726;2023-06-24T03:27:56;95840.91;;;15.01;74.85
9538;BME280;4807;48.024;11.726;2023-06-24T03:31:04;95837.84;;;14.91;75.42
9538;BME280;4807;48.024;11.726;2023-06-24T03:34:13;95847.13;;;14.88;76.01
9538;BME280;4807;48.024;11.726;2023-06-24T03:37:24;95844.00;;;14.78;75.39
9538;BME280;4807;48.024;11.726;2023-06-24T03:40:34;95845.88;;;14.91;75.57
9538;BME280;4807;48.024;11.726;2023-06-24T03:43:42;95853.94;;;14.91;76.32
9538;BME280;4807;48.024;11.726;2023-06-24T03:46:52;95855.59;;;14.92;75.39
9538;BME280;4807;48.024;11.726;2023-06-24T03:50:01;95868.38;;;15.03;75.71
9538;BME280;4807;48.024;11.726;2023-06-24T03:53:09;95870.63;;;15.19;75.36
9538;BME280;4807;48.024;11.726;2023-06-24T03:56:19;95871.88;;;15.30;74.95
9538;BME280;4807;48.024;11.726;2023-06-24T03:59:27;95866.28;;;15.44;73.89
9538;BME280;4807;48.024;11.726;2023-06-24T04:02:36;95873.31;;;15.39;74.11
9538;BME280;4807;48.024;11.726;2023-06-24T04:05:44;95871.44;;;15.46;73.73
9538;BME280;4807;48.024;11.726;2023-06-24T04:08:52;95878.06;;;15.56;73.64
9538;BME280;4807;48.024;11.726;2023-06-24T04:12:04;95874.56;;;15.62;73.57
9538;BME280;4807;48.024;11.726;2023-06-24T04:15:14;95877.63;;;15.66;73.36
9538;BME280;4807;48.024;11.726;2023-06-24T04:18:24;95873.28;;;15.72;73.13
9538;BME280;4807;48.024;11.726;2023-06-24T04:21:33;95879.03;;;15.82;72.57
9538;BME280;4807;48.024;11.726;2023-06-24T04:24:41;95877.97;;;15.89;72.00
9538;BME280;4807;48.024;11.726;2023-06-24T04:27:51;95879.47;;;15.79;72.44
9538;BME280;4807;48.024;11.726;2023-06-24T04:30:59;95873.81;;;16.00;72.24
9538;BME280;4807;48.024;11.726;2023-06-24T04:34:08;95871.69;;;16.15;70.71
9538;BME280;4807;48.024;11.726;2023-06-24T04:37:21;95870.00;;;16.27;71.32
9538;BME280;4807;48.024;11.726;2023-06-24T04:40:32;95874.97;;;16.24;70.73
9538;BME280;4807;48.024;11.726;2023-06-24T04:43:42;95875.69;;;15.99;70.73
9538;BME280;4807;48.024;11.726;2023-06-24T04:46:50;95877.81;;;16.35;70.21
9538;BME280;4807;48.024;11.726;2023-06-24T04:49:59;95874.19;;;16.55;69.98
9538;BME280;4807;48.024;11.726;2023-06-24T04:53:08;95871.63;;;16.73;69.58
9538;BME280;4807;48.024;11.726;2023-06-24T04:56:16;95870.06;;;16.90;69.03
9538;BME280;4807;48.024;11.726;2023-06-24T04:59:27;95871.16;;;17.14;68.17
9538;BME280;4807;48.024;11.726;2023-06-24T05:02:36;95874.81;;;17.20;67.93
9538;BME280;4807;48.024;11.726;2023-06-24T05:05:45;95886.03;;;17.41;66.97
9538;BME280;4807;48.024;11.726;2023-06-24T05:08:53;95881.50;;;17.60;66.24
9538;BME280;4807;48.024;11.726;2023-06-24T05:12:04;95888.91;;;17.89;64.91
9538;BME280;4807;48.024;11.726;2023-06-24T05:15:15;95882.84;;;17.94;63.13
9538;BME280;4807;48.024;11.726;2023-06-24T05:18:24;95890.81;;;18.07;63.50
9538;BME280;4807;48.024;11.726;2023-06-24T05:21:34;95891.38;;;18.46;62.70
9538;BME280;4807;48.024;11.726;2023-06-24T05:24:43;95895.88;;;18.82;61.36
9538;BME280;4807;48.024;11.726;2023-06-24T05:27:52;95897.88;;;19.04;60.85
9538;BME280;4807;48.024;11.726;2023-06-24T05:31:04;95885.91;;;19.12;59.82
9538;BME280;4807;48.024;11.726;2023-06-24T05:34:14;95898.41;;;19.36;59.25
9538;BME280;4807;48.024;11.726;2023-06-24T05:37:23;95892.91;;;19.55;58.77
9538;BME280;4807;48.024;11.726;2023-06-24T05:40:33;95892.81;;;19.50;58.76
9538;BME280;4807;48.024;11.726;2023-06-24T05:43:43;95891.94;;;19.37;58.42
9538;BME280;4807;48.024;11.726;2023-06-24T05:46:54;95902.91;;;19.66;58.43
9538;BME280;4807;48.024;11.726;2023-06-24T05:50:03;95895.16;;;19.58;58.69
9538;BME280;4807;48.024;11.726;2023-06-24T05:53:12;95899.63;;;20.10;57.39
9538;BME280;4807;48.024;11.726;2023-06-24T05:56:22;95902.91;;;19.89;57.52
9538;BME280;4807;48.024;11.726;2023-06-24T05:59:31;95901.72;;;19.50;57.63
9538;BME280;4807;48.024;11.726;2023-06-24T06:02:41;95903.75;;;19.66;57.30
9538;BME280;4807;48.024;11.726;2023-06-24T06:05:50;95904.09;;;19.93;57.11
9538;BME280;4807;48.024;11.726;2023-06-24T06:08:59;95905.03;;;20.34;56.11
9538;BME280;4807;48.024;11.726;2023-06-24T06:12:09;95901.94;;;20.30;55.48
9538;BME280;4807;48.024;11.726;2023-06-24T06:15:19;95917.41;;;19.41;57.44
9538;BME280;4807;48.024;11.726;2023-06-24T06:18:29;95911.34;;;20.28;56.42
9538;BME280;4807;48.024;11.726;2023-06-24T06:21:39;95912.28;;;20.33;56.10
9538;BME280;4807;48.024;11.726;2023-06-24T06:24:48;95901.56;;;20.90;54.32
9538;BME280;4807;48.024;11.726;2023-06-24T06:27:56;95915.50;;;21.27;53.38
9538;BME280;4807;48.024;11.726;2023-06-24T06:31:05;95906.66;;;21.82;50.77
9538;BME280;4807;48.024;11.726;2023-06-24T06:34:15;95915.06;;;21.97;50.61
9538;BME280;4807;48.024;11.726;2023-06-24T06:37:24;95903.03;;;20.69;53.28
9538;BME280;4807;48.024;11.726;2023-06-24T06:40:34;95910.75;;;20.77;55.12
9538;BME280;4807;48.024;11.726;2023-06-24T06:43:42;95907.53;;;20.92;53.82
9538;BME280;4807;48.024;11.726;2023-06-24T06:46:51;95910.38;;;20.85;53.86
9538;BME280;4807;48.024;11.726;2023-06-24T06:50:02;95907.81;;;21.52;52.70
9538;BME280;4807;48.024;11.726;2023-06-24T06:53:11;95911.34;;;21.69;52.32
9538;BME280;4807;48.024;11.726;2023-06-24T06:56:25;95908.16;;;21.56;52.40
9538;BME280;4807;48.024;11.726;2023-06-24T06:59:34;95910.66;;;19.97;54.51
9538;BME280;4807;48.024;11.726;2023-06-24T07:02:42;95904.63;;;20.82;53.63
9538;BME280;4807;48.024;11.726;2023-06-24T07:05:53;95908.31;;;20.12;55.82
9538;BME280;4807;48.024;11.726;2023-06-24T07:09:01;95908.53;;;19.64;55.59
9538;BME280;4807;48.024;11.726;2023-06-24T07:12:11;95913.47;;;19.79;55.48
9538;BME280;4807;48.024;11.726;2023-06-24T07:15:20;95913.63;;;18.89;56.29
9538;BME280;4807;48.024;11.726;2023-06-24T07:18:30;95911.91;;;18.95;57.45
9538;BME280;4807;48.024;11.726;2023-06-24T07:21:41;95907.84;;;19.80;54.24
9538;BME280;4807;48.024;11.726;2023-06-24T07:24:49;95900.22;;;20.64;52.51
9538;BME280;4807;48.024;11.726;2023-06-24T07:27:58;95896.94;;;22.41;46.20
9538;BME280;4807;48.024;11.726;2023-06-24T07:31:07;95893.44;;;24.49;42.69
9538;BME280;4807;48.024;11.726;2023-06-24T07:34:16;95900.88;;;23.79;42.45
9538;BME280;4807;48.024;11.726;2023-06-24T07:40:36;95899.22;;;24.62;40.98
9538;BME280;4807;48.024;11.726;2023-06-24T07:43:58;95902.59;;;26.77;39.89
9538;BME280;4807;48.024;11.726;2023-06-24T07:47:07;95899.19;;;28.23;34.52
9538;BME280;4807;48.024;11.726;2023-06-24T07:50:15;95904.22;;;28.10;33.28
9538;BME280;4807;48.024;11.726;2023-06-24T07:53:24;95901.31;;;25.02;36.35
9538;BME280;4807;48.024;11.726;2023-06-24T07:56:37;95891.56;;;25.52;36.90
9538;BME280;4807;48.024;11.726;2023-06-24T07:59:47;95898.38;;;26.20;36.75
9538;BME280;4807;48.024;11.726;2023-06-24T08:02:57;95907.69;;;24.19;40.44
9538;BME280;4807;48.024;11.726;2023-06-24T08:06:06;95900.56;;;25.42;38.83
9538;BME280;4807;48.024;11.726;2023-06-24T08:09:16;95904.38;;;25.46;37.93
9538;BME280;4807;48.024;11.726;2023-06-24T08:12:26;95901.03;;;25.04;38.52
9538;BME280;4807;48.024;11.726;2023-06-24T08:15:36;95901.16;;;25.65;37.24
9538;BME280;4807;48.024;11.726;2023-06-24T08:18:49;95907.44;;;23.51;40.91
9538;BME280;4807;48.024;11.726;2023-06-24T08:21:58;95901.63;;;25.46;39.01
9538;BME280;4807;48.024;11.726;2023-06-24T08:25:07;95895.63;;;25.19;37.28
9538;BME280;4807;48.024;11.726;2023-06-24T08:28:19;95908.38;;;24.41;40.87
9538;BME280;4807;48.024;11.726;2023-06-24T08:31:27;95897.44;;;23.94;40.30
9538;BME280;4807;48.024;11.726;2023-06-24T08:34:36;95898.25;;;23.31;42.27
9538;BME280;4807;48.024;11.726;2023-06-24T08:37:44;95903.59;;;23.20;41.85
9538;BME280;4807;48.024;11.726;2023-06-24T08:40:53;95895.44;;;23.20;41.83
9538;BME280;4807;48.024;11.726;2023-06-24T08:44:03;95895.56;;;22.38;43.66
9538;BME280;4807;48.024;11.726;2023-06-24T08:47:12;95898.75;;;22.14;44.02
9538;BME280;4807;48.024;11.726;2023-06-24T08:50:26;95887.13;;;21.80;43.47
9538;BME280;4807;48.024;11.726;2023-06-24T08:53:37;95894.31;;;21.91;44.27
9538;BME280;4807;48.024;11.726;2023-06-24T08:56:47;95890.50;;;22.25;44.06
9538;BME280;4807;48.024;11.726;2023-06-24T08:59:57;95895.00;;;23.02;45.25
9538;BME280;4807;48.024;11.726;2023-06-24T09:03:06;95884.66;;;24.94;40.20
9538;BME280;4807;48.024;11.726;2023-06-24T09:06:14;95884.53;;;25.61;35.96
9538;BME280;4807;48.024;11.726;2023-06-24T09:09:23;95892.13;;;26.00;33.89
9538;BME280;4807;48.024;11.726;2023-06-24T09:12:33;95893.06;;;27.29;33.41
9538;BME280;4807;48.024;11.726;2023-06-24T09:15:43;95895.59;;;28.75;30.68
9538;BME280;4807;48.024;11.726;2023-06-24T09:18:53;95894.09;;;28.11;35.52
9538;BME280;4807;48.024;11.726;2023-06-24T09:22:03;95890.94;;;28.52;31.14
9538;BME280;4807;48.024;11.726;2023-06-24T09:25:17;95893.41;;;28.24;31.20
9538;BME280;4807;48.024;11.726;2023-06-24T09:28:26;95891.22;;;27.63;32.64
9538;BME280;4807;48.024;11.726;2023-06-24T09:31:46;95884.63;;;24.26;37.72
9538;BME280;4807;48.024;11.726;2023-06-24T09:34:55;95888.91;;;21.57;42.77
9538;BME280;4807;48.024;11.726;2023-06-24T09:38:03;95887.41;;;22.17;42.71
9538;BME280;4807;48.024;11.726;2023-06-24T09:41:12;95888.81;;;23.11;41.14
9538;BME280;4807;48.024;11.726;2023-06-24T09:44:23;95888.00;;;22.84;41.49
9538;BME280;4807;48.024;11.726;2023-06-24T09:47:32;95880.47;;;21.70;43.13
9538;BME280;4807;48.024;11.726;2023-06-24T09:50:41;95877.59;;;22.76;44.36
9538;BME280;4807;48.024;11.726;2023-06-24T09:53:53;95872.28;;;23.45;39.90
9538;BME280;4807;48.024;11.726;2023-06-24T09:57:06;95870.25;;;23.30;39.94
9538;BME280;4807;48.024;11.726;2023-06-24T10:00:20;95867.50;;;23.25;40.63
9538;BME280;4807;48.024;11.726;2023-06-24T10:03:35;95868.31;;;23.89;41.60
9538;BME280;4807;48.024;11.726;2023-06-24T10:06:45;95854.41;;;22.46;40.51
9538;BME280;4807;48.024;11.726;2023-06-24T10:09:54;95855.81;;;22.27;42.70
9538;BME280;4807;48.024;11.726;2023-06-24T10:13:04;95854.91;;;22.87;43.96
9538;BME280;4807;48.024;11.726;2023-06-24T10:16:13;95851.84;;;22.13;42.49
9538;BME280;4807;48.024;11.726;2023-06-24T10:19:24;95857.09;;;21.64;43.95
9538;BME280;4807;48.024;11.726;2023-06-24T10:22:33;95857.31;;;20.84;43.37
9538;BME280;4807;48.024;11.726;2023-06-24T10:25:47;95849.38;;;21.23;43.37
9538;BME280;4807;48.024;11.726;2023-06-24T10:29:12;95844.44;;;21.37;45.19
9538;BME280;4807;48.024;11.726;2023-06-24T10:32:24;95841.72;;;22.08;45.15
9538;BME280;4807;48.024;11.726;2023-06-24T10:35:41;95838.03;;;22.36;42.39
9538;BME280;4807;48.024;11.726;2023-06-24T10:38:57;95847.09;;;22.69;39.53
9538;BME280;4807;48.024;11.726;2023-06-24T10:42:37;95833.53;;;22.96;40.40
9538;BME280;4807;48.024;11.726;2023-06-24T10:45:49;95831.38;;;22.98;39.82
9538;BME280;4807;48.024;11.726;2023-06-24T10:48:58;95830.16;;;22.83;38.50
9538;BME280;4807;48.024;11.726;2023-06-24T10:52:09;95822.72;;;22.30;40.14
9538;BME280;4807;48.024;11.726;2023-06-24T10:55:18;95832.28;;;22.33;40.98
9538;BME280;4807;48.024;11.726;2023-06-24T10:58:27;95823.69;;;22.41;41.23
9538;BME280;4807;48.024;11.726;2023-06-24T11:01:35;95811.88;;;22.30;41.68
9538;BME280;4807;48.024;11.726;2023-06-24T11:05:02;95809.06;;;21.82;41.03
9538;BME280;4807;48.024;11.726;2023-06-24T11:08:13;95812.59;;;22.42;43.61
9538;BME280;4807;48.024;11.726;2023-06-24T11:11:21;95810.91;;;22.36;42.74
9538;BME280;4807;48.024;11.726;2023-06-24T11:14:30;95803.78;;;22.57;42.88
9538;BME280;4807;48.024;11.726;2023-06-24T11:17:41;95798.66;;;22.82;41.69
9538;BME280;4807;48.024;11.726;2023-06-24T11:20:54;95801.78;;;22.48;42.46
9538;BME280;4807;48.024;11.726;2023-06-24T11:24:05;95799.91;;;22.26;42.19
9538;BME280;4807;48.024;11.726;2023-06-24T11:27:14;95807.84;;;22.76;40.48
9538;BME280;4807;48.024;11.726;2023-06-24T11:30:24;95793.19;;;23.09;38.17
9538;BME280;4807;48.024;11.726;2023-06-24T11:33:32;95784.72;;;23.38;37.40
9538;BME280;4807;48.024;11.726;2023-06-24T11:36:41;95780.34;;;23.32;37.82
9538;BME280;4807;48.024;11.726;2023-06-24T11:40:03;95766.16;;;24.19;39.19
9538;BME280;4807;48.024;11.726;2023-06-24T11:43:12;95752.81;;;25.10;38.02
9538;BME280;4807;48.024;11.726;2023-06-24T11:46:21;95752.53;;;25.01;36.06
9538;BME280;4807;48.024;11.726;2023-06-24T11:49:29;95744.34;;;25.17;35.85
9538;BME280;4807;48.024;11.726;2023-06-24T11:52:44;95749.53;;;25.43;34.59
9538;BME280;4807;48.024;11.726;2023-06-24T11:55:58;95748.69;;;25.43;30.78
9538;BME280;4807;48.024;11.726;2023-06-24T11:59:06;95740.81;;;25.16;31.62
9538;BME280;4807;48.024;11.726;2023-06-24T12:02:15;95740.81;;;24.96;32.66
9538;BME280;4807;48.024;11.726;2023-06-24T12:05:25;95740.78;;;23.98;32.85
9538;BME280;4807;48.024;11.726;2023-06-24T12:08:35;95731.06;;;23.55;34.29
9538;BME280;4807;48.024;11.726;2023-06-24T12:12:00;95728.28;;;23.97;35.19
9538;BME280;4807;48.024;11.726;2023-06-24T12:15:10;95726.63;;;23.96;34.11
9538;BME280;4807;48.024;11.726;2023-06-24T12:18:19;95717.34;;;23.92;32.19
9538;BME280;4807;48.024;11.726;2023-06-24T12:21:27;95712.78;;;23.98;32.66
9538;BME280;4807;48.024;11.726;2023-06-24T12:24:35;95712.09;;;23.70;32.52
9538;BME280;4807;48.024;11.726;2023-06-24T12:27:47;95709.34;;;24.27;33.88
9538;BME280;4807;48.024;11.726;2023-06-24T12:30:56;95706.44;;;24.85;34.87
9538;BME280;4807;48.024;11.726;2023-06-24T12:34:04;95705.63;;;25.25;35.69
9538;BME280;4807;48.024;11.726;2023-06-24T12:37:13;95697.44;;;24.89;32.59
9538;BME280;4807;48.024;11.726;2023-06-24T12:40:22;95695.59;;;25.05;34.36
9538;BME280;4807;48.024;11.726;2023-06-24T12:43:33;95685.16;;;25.53;32.99
9538;BME280;4807;48.024;11.726;2023-06-24T12:46:41;95680.81;;;25.31;31.71
9538;BME280;4807;48.024;11.726;2023-06-24T12:49:50;95681.13;;;25.09;31.41
9538;BME280;4807;48.024;11.726;2023-06-24T12:52:59;95678.63;;;24.37;30.26
9538;BME280;4807;48.024;11.726;2023-06-24T12:56:08;95686.66;;;24.02;30.95
9538;BME280;4807;48.024;11.726;2023-06-24T12:59:18;95682.38;;;24.16;33.53
9538;BME280;4807;48.024;11.726;2023-06-24T13:02:27;95675.47;;;23.88;31.78
9538;BME280;4807;48.024;11.726;2023-06-24T13:05:37;95668.69;;;23.90;31.61
9538;BME280;4807;48.024;11.726;2023-06-24T13:08:46;95670.44;;;24.22;32.99
9538;BME280;4807;48.024;11.726;2023-06-24T13:11:55;95672.94;;;24.54;31.70
9538;BME280;4807;48.024;11.726;2023-06-24T13:15:08;95674.81;;;24.43;30.54
9538;BME280;4807;48.024;11.726;2023-06-24T13:18:18;95668.19;;;24.04;30.01
9538;BME280;4807;48.024;11.726;2023-06-24T13:21:27;95664.13;;;24.11;32.07
9538;BME280;4807;48.024;11.726;2023-06-24T13:24:36;95656.78;;;24.12;31.93
9538;BME280;4807;48.024;11.726;2023-06-24T13:27:45;95658.59;;;23.81;32.13
9538;BME280;4807;48.024;11.726;2023-06-24T13:30:56;95660.78;;;23.89;32.73
9538;BME280;4807;48.024;11.726;2023-06-24T13:34:04;95650.63;;;23.59;33.17
9538;BME280;4807;48.024;11.726;2023-06-24T13:37:16;95650.06;;;23.62;33.26
9538;BME280;4807;48.024;11.726;2023-06-24T13:40:24;95648.34;;;23.46;32.68
9538;BME280;4807;48.024;11.726;2023-06-24T13:43:33;95653.03;;;23.50;32.20
9538;BME280;4807;48.024;11.726;2023-06-24T13:46:43;95644.72;;;23.92;33.17
9538;BME280;4807;48.024;11.726;2023-06-24T13:49:51;95649.00;;;23.68;30.31
9538;BME280;4807;48.024;11.726;2023-06-24T13:53:00;95649.56;;;23.70;31.43
9538;BME280;4807;48.024;11.726;2023-06-24T13:56:09;95648.59;;;24.07;31.56
9538;BME280;4807;48.024;11.726;2023-06-24T13:59:17;95645.16;;;24.77;33.74
9538;BME280;4807;48.024;11.726;2023-06-24T14:02:27;95646.22;;;24.20;33.99
9538;BME280;4807;48.024;11.726;2023-06-24T14:05:36;95637.09;;;23.84;33.85
9538;BME280;4807;48.024;11.726;2023-06-24T14:08:45;95641.00;;;24.19;34.84
9538;BME280;4807;48.024;11.726;2023-06-24T14:11:54;95640.00;;;24.60;33.05
9538;BME280;4807;48.024;11.726;2023-06-24T14:15:05;95633.72;;;24.70;30.79
9538;BME280;4807;48.024;11.726;2023-06-24T14:18:15;95635.91;;;24.48;31.87
9538;BME280;4807;48.024;11.726;2023-06-24T14:21:24;95629.34;;;24.23;32.70
9538;BME280;4807;48.024;11.726;2023-06-24T14:24:33;95627.47;;;24.39;32.72
9538;BME280;4807;48.024;11.726;2023-06-24T14:27:41;95626.34;;;24.25;33.41
9538;BME280;4807;48.024;11.726;2023-06-24T14:30:49;95625.53;;;24.24;34.95
9538;BME280;4807;48.024;11.726;2023-06-24T14:33:59;95627.94;;;24.11;34.78
9538;BME280;4807;48.024;11.726;2023-06-24T14:37:08;95627.59;;;23.82;36.03
9538;BME280;4807;48.024;11.726;2023-06-24T14:40:17;95627.84;;;23.85;36.27
9538;BME280;4807;48.024;11.726;2023-06-24T14:43:26;95628.19;;;24.04;36.12
9538;BME280;4807;48.024;11.726;2023-06-24T14:46:34;95625.28;;;24.51;35.17
9538;BME280;4807;48.024;11.726;2023-06-24T14:49:44;95622.03;;;24.80;33.90
9538;BME280;4807;48.024;11.726;2023-06-24T14:52:52;95620.38;;;24.73;33.92
9538;BME280;4807;48.024;11.726;2023-06-24T14:56:01;95625.53;;;25.05;32.85
9538;BME280;4807;48.024;11.726;2023-06-24T14:59:09;95616.28;;;25.01;32.51
9538;BME280;4807;48.024;11.726;2023-06-24T15:02:18;95619.03;;;25.01;33.44
9538;BME280;4807;48.024;11.726;2023-06-24T15:05:28;95620.03;;;25.31;33.07
9538;BME280;4807;48.024;11.726;2023-06-24T15:08:37;95619.69;;;25.63;35.34
9538;BME280;4807;48.024;11.726;2023-06-24T15:11:45;95623.03;;;26.09;32.95
9538;BME280;4807;48.024;11.726;2023-06-24T15:14:53;95621.28;;;26.67;32.68
9538;BME280;4807;48.024;11.726;2023-06-24T15:18:03;95616.81;;;26.76;32.53
9538;BME280;4807;48.024;11.726;2023-06-24T15:21:14;95613.91;;;26.23;33.20
9538;BME280;4807;48.024;11.726;2023-06-24T15:24:42;95610.97;;;26.15;34.34
9538;BME280;4807;48.024;11.726;2023-06-24T15:27:57;95609.25;;;25.80;34.90
9538;BME280;4807;48.024;11.726;2023-06-24T15:31:07;95607.72;;;25.48;33.53
9538;BME280;4807;48.024;11.726;2023-06-24T15:34:16;95605.00;;;25.38;34.47
9538;BME280;4807;48.024;11.726;2023-06-24T15:37:26;95596.91;;;25.28;34.25
9538;BME280;4807;48.024;11.726;2023-06-24T15:40:39;95606.34;;;25.51;34.33
9538;BME280;4807;48.024;11.726;2023-06-24T15:43:50;95598.69;;;25.68;34.44
9538;BME280;4807;48.024;11.726;2023-06-24T15:46:59;95597.84;;;25.68;33.81
9538;BME280;4807;48.024;11.726;2023-06-24T15:50:08;95595.00;;;25.88;32.43
9538;BME280;4807;48.024;11.726;2023-06-24T15:53:19;95591.72;;;25.91;33.97
9538;BME280;4807;48.024;11.726;2023-06-24T15:56:27;95593.88;;;25.99;33.09
9538;BME280;4807;48.024;11.726;2023-06-24T15:59:35;95592.31;;;25.83;34.25
9538;BME280;4807;48.024;11.726;2023-06-24T16:02:45;95595.81;;;25.14;33.98
9538;BME280;4807;48.024;11.726;2023-06-24T16:05:54;95585.25;;;24.77;35.72
9538;BME280;4807;48.024;11.726;2023-06-24T16:09:04;95571.09;;;24.34;34.96
9538;BME280;4807;48.024;11.726;2023-06-24T16:12:12;95570.78;;;23.90;35.95
9538;BME280;4807;48.024;11.726;2023-06-24T16:15:21;95577.31;;;24.10;35.96
9538;BME280;4807;48.024;11.726;2023-06-24T16:18:30;95574.13;;;24.23;34.42
9538;BME280;4807;48.024;11.726;2023-06-24T16:21:38;95568.06;;;24.11;34.98
9538;BME280;4807;48.024;11.726;2023-06-24T16:24:48;95570.56;;;24.27;33.91
9538;BME280;4807;48.024;11.726;2023-06-24T16:27:57;95574.09;;;24.43;34.17
9538;BME280;4807;48.024;11.726;2023-06-24T16:31:05;95568.94;;;24.42;32.42
9538;BME280;4807;48.024;11.726;2023-06-24T16:34:15;95559.66;;;24.68;33.35
9538;BME280;4807;48.024;11.726;2023-06-24T16:37:26;95562.94;;;24.70;32.87
9538;BME280;4807;48.024;11.726;2023-06-24T16:40:37;95561.56;;;24.73;31.98
9538;BME280;4807;48.024;11.726;2023-06-24T16:43:47;95563.72;;;24.86;32.41
9538;BME280;4807;48.024;11.726;2023-06-24T16:46:55;95545.25;;;27.27;29.68
9538;BME280;4807;48.024;11.726;2023-06-24T16:50:05;95551.63;;;31.26;24.46
9538;BME280;4807;48.024;11.726;2023-06-24T16:53:14;95552.19;;;34.61;20.04
9538;BME280;4807;48.024;11.726;2023-06-24T16:56:24;95551.59;;;32.65;21.66
9538;BME280;4807;48.024;11.726;2023-06-24T16:59:33;95552.84;;;32.93;21.77
9538;BME280;4807;48.024;11.726;2023-06-24T17:02:41;95544.13;;;32.31;22.18
9538;BME280;4807;48.024;11.726;2023-06-24T17:05:50;95537.91;;;33.88;20.87